< < Back
Terminal Aerodrome Forecast


Current Version              Previous Versions:   1  2  3  4  5  6  7  8  9  

Terminal Aerodrome Forecast

741
FTUS42 KTAE 301901 AAA
TAFDHN
TAF AMD
KDHN 301901Z 3019/0118 24015KT P6SM VCTS BKN035CB BKN150
      TEMPO 3019/3023 VRB30G45KT 2SM TSRA BKN025CB
     FM010100 23007KT P6SM SCT100 BKN200
     FM011400 27008KT P6SM SCT040=



Latest METAR

015
SAUS70 KWBC 302100 RRG
MTRDHN
METAR KDHN 302053Z 28008KT 10SM FEW090 FEW120 24/21 A3006 RMK AO2 LTG
DSNT SE-SW RAE1954 TSE01 SLP174 P0000 60003 T02440206
56004


USA.gov is the U.S. government's official web portal to all federal, state and local government web resources and services.